TNCC

Hato International Airport

Willemstad, Curaçao
TAF TNCC 171000Z 1712/1812 11013KT 9999 SCT020
Issued Valid From Valid To
Aug-17 @ 10:00 UTC
(5 hours ago)
Aug-17 @ 12:00 UTC
(3 hours ago)
Aug-18 @ 12:00 UTC
(in 21 hours)
Aug-17 @ 12:00 to Aug-18 @ 12:00
TAF TNCC 171000Z 1712/1812 11013KT 9999 SCT020
Wind Visibility Clouds
110° at 13 knots 10,000+ meters
  • Scattered at 2,000' AGL
TAF TNCC 171000Z 1712/1812 11013KT 9999 SCT020
Issued Aug-17 @ 10:00 UTC
(5 hours ago)
Valid From Aug-17 @ 12:00 UTC
(3 hours ago)
Valid To Aug-18 @ 12:00 UTC
(in 21 hours)
Aug-17 @ 12:00 - Aug-18 @ 12:00
Wind Visibility
110° at 13 knots 10,000+ meters
Clouds
  • Scattered at 2,000' AGL